Saxaren — SKHW — position and weather

sailwx.info

Track history (hours):
 
Tides and Currents Weather Stations Pressure Air Temp Water Temp Dewpoint Dewpoint Depression Visibility Wind Speed Wind Dir Waves Ship Positions

Saxaren

Last reported at 2016-Jun-25 04:33 UTC. Time now 2016-Jun-25 05:14 UTC.
Position N 59°20' E 018°04'.

Length 38 m; draft 1.8 m.

Type: Passenger vessel. MMSI: 265512110.

Date/timePositionNaut miles runAvg speedWind from/ knotsBaromVisibWave heightAir tempDewpointWater temp
2016-Jun-25 04:33N 59°20' E 018°04'0 0.0
2016-Jun-25 03:33N 59°20' E 018°04'0 0.0
2016-Jun-25 02:33N 59°20' E 018°04'0 0.0
2016-Jun-25 01:33N 59°20' E 018°04'0 0.0
2016-Jun-25 00:33N 59°20' E 018°04'0 0.0
2016-Jun-24 23:33N 59°20' E 018°04'0 0.0
2016-Jun-24 22:33N 59°20' E 018°04'0 0.0
2016-Jun-24 21:33N 59°20' E 018°04'0 0.0
2016-Jun-24 20:33N 59°20' E 018°04'0 0.0
2016-Jun-24 19:33N 59°20' E 018°04'3 0.4
2016-Jun-24 11:24N 59°20' E 018°11'3 4.1
2016-Jun-24 10:33N 59°20' E 018°04'0 0.0
2016-Jun-24 09:33N 59°20' E 018°04'0 0.2
2016-Jun-24 08:18N 59°20' E 018°05'0 0.3
2016-Jun-24 07:33N 59°20' E 018°05'0 0.0
2016-Jun-23 22:20N 59°20' E 018°05'3 0.6
2016-Jun-23 16:25N 59°20' E 018°11'3 4.1
2016-Jun-23 15:34N 59°20' E 018°05'0 0.0
2016-Jun-23 14:33N 59°20' E 018°05'0 0.0
2016-Jun-23 05:33N 59°20' E 018°05'0 0.0
2016-Jun-23 04:34N 59°20' E 018°05'0 0.0
2016-Jun-23 03:34N 59°20' E 018°05'0 0.0
2016-Jun-23 02:34N 59°20' E 018°04'0 0.0
2016-Jun-23 01:33N 59°20' E 018°04'0 0.0
2016-Jun-23 00:33N 59°20' E 018°05'0 0.0
2016-Jun-22 23:34N 59°20' E 018°04'0 0.0
2016-Jun-22 22:33N 59°20' E 018°04'0 0.0
2016-Jun-22 21:33N 59°20' E 018°05'0 0.0
2016-Jun-22 20:33N 59°20' E 018°05'0 0.0
2016-Jun-22 19:33N 59°20' E 018°05'0 0.0
2016-Jun-22 18:33N 59°20' E 018°04'0 0.0
2016-Jun-22 17:33N 59°20' E 018°05'3 0.3
2016-Jun-22 07:05N 59°20' E 018°11'3 6.5
2016-Jun-22 06:33N 59°20' E 018°04'0 0.0
2016-Jun-22 05:33N 59°20' E 018°05'0 0.0
2016-Jun-22 04:34N 59°20' E 018°05'0 0.0
2016-Jun-22 03:33N 59°20' E 018°05'0 0.0
2016-Jun-22 02:34N 59°20' E 018°05'0 0.0
2016-Jun-22 01:33N 59°20' E 018°05'0 0.0
2016-Jun-22 00:33N 59°20' E 018°05'0 0.0
2016-Jun-21 23:33N 59°20' E 018°04'0 0.0
2016-Jun-21 22:33N 59°20' E 018°04'0 0.0
2016-Jun-21 21:34N 59°20' E 018°05'0 0.0
2016-Jun-21 20:33N 59°20' E 018°04'0 0.0
2016-Jun-21 19:34N 59°20' E 018°04'0 0.0
2016-Jun-21 18:33N 59°20' E 018°04'0 0.0
2016-Jun-21 17:33N 59°20' E 018°04'3 0.3
2016-Jun-21 07:08N 59°20' E 018°11'3 6.1
2016-Jun-21 06:33N 59°20' E 018°04'0 0.0
2016-Jun-21 04:33N 59°20' E 018°05'0 0.0
2016-Jun-21 03:33N 59°20' E 018°05'0 0.0
2016-Jun-21 02:33N 59°20' E 018°04'0 0.0
2016-Jun-21 01:33N 59°20' E 018°05'0 0.0
2016-Jun-21 00:33N 59°20' E 018°05'0 0.0
2016-Jun-20 23:33N 59°20' E 018°05'0 0.0
2016-Jun-20 22:33N 59°20' E 018°04'0 0.0
2016-Jun-20 21:33N 59°20' E 018°04'0 0.0
2016-Jun-20 20:24N 59°20' E 018°05'0 0.0
2016-Jun-20 19:33N 59°20' E 018°05'0 0.0
2016-Jun-20 17:33N 59°20' E 018°04'3 0.3
2016-Jun-20 07:06N 59°20' E 018°11'3 6.5
2016-Jun-20 06:33N 59°20' E 018°05'1 0.1
2016-Jun-19 18:23N 59°19' E 018°06'2 0.0
2016-Jun-17 14:33N 59°19' E 018°10'3 1.4
2016-Jun-17 12:34N 59°20' E 018°05'0 0.0
2016-Jun-17 09:33N 59°20' E 018°04'4 0.2
2016-Jun-16 13:26N 59°20' E 018°12'4 4.5
2016-Jun-16 12:33N 59°20' E 018°05'0 0.0
2016-Jun-16 11:34N 59°20' E 018°05'0 0.0
2016-Jun-16 10:33N 59°20' E 018°05'0 0.0
2016-Jun-16 09:34N 59°20' E 018°05'0 0.0
2016-Jun-16 08:33N 59°20' E 018°05'0 0.0
2016-Jun-16 07:34N 59°20' E 018°05'0 0.0
2016-Jun-16 06:30N 59°20' E 018°05'0 0.0
2016-Jun-16 05:33N 59°20' E 018°05'0 0.0
2016-Jun-16 04:32N 59°20' E 018°05'0 0.0
2016-Jun-16 03:33N 59°20' E 018°05'0 0.0
2016-Jun-16 02:33N 59°20' E 018°05'0 0.0
2016-Jun-16 01:33N 59°20' E 018°05'0 0.0
2016-Jun-16 00:34N 59°20' E 018°05'0 0.0
2016-Jun-15 23:34N 59°20' E 018°05'0 0.0
2016-Jun-15 22:33N 59°20' E 018°05'0 0.0
2016-Jun-15 21:33N 59°20' E 018°05'0 0.0
2016-Jun-15 20:33N 59°20' E 018°05'0 0.0
2016-Jun-15 19:33N 59°20' E 018°05'0 0.0
2016-Jun-15 18:34N 59°20' E 018°05'0 0.0
2016-Jun-15 17:33N 59°20' E 018°05'0 0.0
2016-Jun-15 16:34N 59°20' E 018°05'0 0.0
2016-Jun-15 15:33N 59°20' E 018°05'0 0.0
2016-Jun-15 14:33N 59°20' E 018°05'0 0.0
2016-Jun-15 13:34N 59°20' E 018°05'0 0.0
2016-Jun-15 12:34N 59°20' E 018°05'0 0.0
2016-Jun-15 11:34N 59°20' E 018°05'0 0.0
2016-Jun-15 10:34N 59°20' E 018°05'0 0.0
2016-Jun-15 09:33N 59°20' E 018°05'0 0.0
2016-Jun-15 08:33N 59°20' E 018°05'0 0.0
2016-Jun-15 07:34N 59°20' E 018°05'0 0.0
2016-Jun-15 06:33N 59°20' E 018°05'0 0.0
2016-Jun-15 05:33N 59°20' E 018°05'0 0.0
2016-Jun-15 04:33N 59°20' E 018°05'  
Track history (hours):
 
Tides and Currents Weather Stations Pressure Air Temp Water Temp Dewpoint Dewpoint Depression Visibility Wind Speed Wind Dir Waves Ship Positions

Saxaren

Last reported at 2016-Jun-25 04:33 UTC. Time now 2016-Jun-25 05:14 UTC.
Position N 59°20' E 018°04'.

Length 38 m; draft 1.8 m.

Type: Passenger vessel. MMSI: 265512110.

Date/timePositionNaut miles runAvg speedWind from/ knotsBaromVisibWave heightAir tempDewpointWater temp
2016-Jun-25 04:33N 59°20' E 018°04'0 0.0
2016-Jun-25 03:33N 59°20' E 018°04'0 0.0
2016-Jun-25 02:33N 59°20' E 018°04'0 0.0
2016-Jun-25 01:33N 59°20' E 018°04'0 0.0
2016-Jun-25 00:33N 59°20' E 018°04'0 0.0
2016-Jun-24 23:33N 59°20' E 018°04'0 0.0
2016-Jun-24 22:33N 59°20' E 018°04'0 0.0
2016-Jun-24 21:33N 59°20' E 018°04'0 0.0
2016-Jun-24 20:33N 59°20' E 018°04'0 0.0
2016-Jun-24 19:33N 59°20' E 018°04'3 0.4
2016-Jun-24 11:24N 59°20' E 018°11'3 4.1
2016-Jun-24 10:33N 59°20' E 018°04'0 0.0
2016-Jun-24 09:33N 59°20' E 018°04'0 0.2
2016-Jun-24 08:18N 59°20' E 018°05'0 0.3
2016-Jun-24 07:33N 59°20' E 018°05'0 0.0
2016-Jun-23 22:20N 59°20' E 018°05'3 0.6
2016-Jun-23 16:25N 59°20' E 018°11'3 4.1
2016-Jun-23 15:34N 59°20' E 018°05'0 0.0
2016-Jun-23 14:33N 59°20' E 018°05'0 0.0
2016-Jun-23 05:33N 59°20' E 018°05'0 0.0
2016-Jun-23 04:34N 59°20' E 018°05'0 0.0
2016-Jun-23 03:34N 59°20' E 018°05'0 0.0
2016-Jun-23 02:34N 59°20' E 018°04'0 0.0
2016-Jun-23 01:33N 59°20' E 018°04'0 0.0
2016-Jun-23 00:33N 59°20' E 018°05'0 0.0
2016-Jun-22 23:34N 59°20' E 018°04'0 0.0
2016-Jun-22 22:33N 59°20' E 018°04'0 0.0
2016-Jun-22 21:33N 59°20' E 018°05'0 0.0
2016-Jun-22 20:33N 59°20' E 018°05'0 0.0
2016-Jun-22 19:33N 59°20' E 018°05'0 0.0
2016-Jun-22 18:33N 59°20' E 018°04'0 0.0
2016-Jun-22 17:33N 59°20' E 018°05'3 0.3
2016-Jun-22 07:05N 59°20' E 018°11'3 6.5
2016-Jun-22 06:33N 59°20' E 018°04'0 0.0
2016-Jun-22 05:33N 59°20' E 018°05'0 0.0
2016-Jun-22 04:34N 59°20' E 018°05'0 0.0
2016-Jun-22 03:33N 59°20' E 018°05'0 0.0
2016-Jun-22 02:34N 59°20' E 018°05'0 0.0
2016-Jun-22 01:33N 59°20' E 018°05'0 0.0
2016-Jun-22 00:33N 59°20' E 018°05'0 0.0
2016-Jun-21 23:33N 59°20' E 018°04'0 0.0
2016-Jun-21 22:33N 59°20' E 018°04'0 0.0
2016-Jun-21 21:34N 59°20' E 018°05'0 0.0
2016-Jun-21 20:33N 59°20' E 018°04'0 0.0
2016-Jun-21 19:34N 59°20' E 018°04'0 0.0
2016-Jun-21 18:33N 59°20' E 018°04'0 0.0
2016-Jun-21 17:33N 59°20' E 018°04'3 0.3
2016-Jun-21 07:08N 59°20' E 018°11'3 6.1
2016-Jun-21 06:33N 59°20' E 018°04'0 0.0
2016-Jun-21 04:33N 59°20' E 018°05'0 0.0
2016-Jun-21 03:33N 59°20' E 018°05'0 0.0
2016-Jun-21 02:33N 59°20' E 018°04'0 0.0
2016-Jun-21 01:33N 59°20' E 018°05'0 0.0
2016-Jun-21 00:33N 59°20' E 018°05'0 0.0
2016-Jun-20 23:33N 59°20' E 018°05'0 0.0
2016-Jun-20 22:33N 59°20' E 018°04'0 0.0
2016-Jun-20 21:33N 59°20' E 018°04'0 0.0
2016-Jun-20 20:24N 59°20' E 018°05'0 0.0
2016-Jun-20 19:33N 59°20' E 018°05'0 0.0
2016-Jun-20 17:33N 59°20' E 018°04'3 0.3
2016-Jun-20 07:06N 59°20' E 018°11'3 6.5
2016-Jun-20 06:33N 59°20' E 018°05'1 0.1
2016-Jun-19 18:23N 59°19' E 018°06'2 0.0
2016-Jun-17 14:33N 59°19' E 018°10'3 1.4
2016-Jun-17 12:34N 59°20' E 018°05'0 0.0
2016-Jun-17 09:33N 59°20' E 018°04'4 0.2
2016-Jun-16 13:26N 59°20' E 018°12'4 4.5
2016-Jun-16 12:33N 59°20' E 018°05'0 0.0
2016-Jun-16 11:34N 59°20' E 018°05'0 0.0
2016-Jun-16 10:33N 59°20' E 018°05'0 0.0
2016-Jun-16 09:34N 59°20' E 018°05'0 0.0
2016-Jun-16 08:33N 59°20' E 018°05'0 0.0
2016-Jun-16 07:34N 59°20' E 018°05'0 0.0
2016-Jun-16 06:30N 59°20' E 018°05'0 0.0
2016-Jun-16 05:33N 59°20' E 018°05'0 0.0
2016-Jun-16 04:32N 59°20' E 018°05'0 0.0
2016-Jun-16 03:33N 59°20' E 018°05'0 0.0
2016-Jun-16 02:33N 59°20' E 018°05'0 0.0
2016-Jun-16 01:33N 59°20' E 018°05'0 0.0
2016-Jun-16 00:34N 59°20' E 018°05'0 0.0
2016-Jun-15 23:34N 59°20' E 018°05'0 0.0
2016-Jun-15 22:33N 59°20' E 018°05'0 0.0
2016-Jun-15 21:33N 59°20' E 018°05'0 0.0
2016-Jun-15 20:33N 59°20' E 018°05'0 0.0
2016-Jun-15 19:33N 59°20' E 018°05'0 0.0
2016-Jun-15 18:34N 59°20' E 018°05'0 0.0
2016-Jun-15 17:33N 59°20' E 018°05'0 0.0
2016-Jun-15 16:34N 59°20' E 018°05'0 0.0
2016-Jun-15 15:33N 59°20' E 018°05'0 0.0
2016-Jun-15 14:33N 59°20' E 018°05'0 0.0
2016-Jun-15 13:34N 59°20' E 018°05'0 0.0
2016-Jun-15 12:34N 59°20' E 018°05'0 0.0
2016-Jun-15 11:34N 59°20' E 018°05'0 0.0
2016-Jun-15 10:34N 59°20' E 018°05'0 0.0
2016-Jun-15 09:33N 59°20' E 018°05'0 0.0
2016-Jun-15 08:33N 59°20' E 018°05'0 0.0
2016-Jun-15 07:34N 59°20' E 018°05'0 0.0
2016-Jun-15 06:33N 59°20' E 018°05'0 0.0
2016-Jun-15 05:33N 59°20' E 018°05'0 0.0
2016-Jun-15 04:33N 59°20' E 018°05'  

Dump ship's entire track history